.
WxDataArchive / Data Records for 2006-10-28
2006-10-27 October 2006 2006-10-29

Data Records for Saturday, 28 October 2006

Time	Temp	Chill	HIndex	Humid	Dewpt	 Wind 	HiWind	WindDir	Rain 	Barom 
-----	----	-----	------	-----	-----	------	------	-------	-----	----- 
00:00	41.1	41.1	41.1	93	39.2	1	3	292	0.00	29.517 
00:05	41.1	41.1	41.1	93	39.2	1	3	270	0.00	29.517 
00:10	40.9	40.9	40.9	93	39.0	1	3	315	0.00	29.517 
00:15	40.9	40.9	40.9	93	39.0	1	5	292	0.00	29.513 
00:20	40.8	40.8	40.8	93	38.9	1	4	315	0.00	29.513 
00:25	40.6	40.6	40.6	93	38.7	1	3	315	0.00	29.513 
00:30	40.6	40.6	40.6	93	38.7	2	11	315	0.00	29.510 
00:35	40.6	40.6	40.6	93	38.7	2	4	292	0.00	29.510 
00:40	40.5	40.5	40.5	93	38.6	1	4	338	0.00	29.510 
00:45	40.5	40.5	40.5	92	38.4	1	4	0	0.00	29.508 
00:50	40.5	40.5	40.5	93	38.6	1	4	315	0.00	29.508 
00:55	40.5	40.5	40.5	93	38.6	0	3	292	0.00	29.508 
01:00	40.5	40.5	40.5	93	38.6	1	4	292	0.00	29.509 
01:05	40.5	40.5	40.5	93	38.6	0	2	338	0.00	29.509 
01:10	40.5	40.5	40.5	93	38.6	1	2	338	0.00	29.509 
01:15	40.5	40.5	40.5	93	38.6	0	2	338	0.00	29.507 
01:20	40.3	40.3	40.3	93	38.4	1	4	315	0.00	29.507 
01:25	40.3	40.3	40.3	93	38.4	1	4	315	0.00	29.507 
01:30	40.5	40.5	40.5	93	38.6	2	4	292	0.00	29.507 
01:35	40.5	40.5	40.5	93	38.6	1	3	292	0.00	29.507 
01:40	40.5	40.5	40.5	93	38.6	1	5	292	0.00	29.507 
01:45	40.3	40.3	40.3	92	38.2	1	4	338	0.00	29.510 
01:50	40.3	40.3	40.3	92	38.2	1	4	315	0.00	29.510 
01:55	40.3	40.3	40.3	92	38.2	1	4	315	0.00	29.510 
02:00	40.3	40.3	40.3	92	38.2	1	4	315	0.00	29.507 
02:05	40.3	40.3	40.3	92	38.2	1	2	338	0.00	29.507 
02:10	40.3	40.3	40.3	92	38.2	1	3	315	0.00	29.507 
02:15	40.3	40.3	40.3	92	38.2	1	3	315	0.00	29.505 
02:20	40.3	40.3	40.3	92	38.2	1	2	315	0.00	29.505 
02:25	40.3	40.3	40.3	92	38.2	1	4	315	0.00	29.505 
02:30	40.3	40.3	40.3	92	38.2	1	6	315	0.00	29.500 
02:35	40.2	40.2	40.2	92	38.1	1	4	338	0.00	29.500 
02:40	40.2	40.2	40.2	92	38.1	2	4	315	0.00	29.500 
02:45	40.2	40.2	40.2	92	38.1	1	4	315	0.00	29.502 
02:50	40.2	40.2	40.2	92	38.1	1	2	292	0.00	29.502 
02:55	40.2	40.2	40.2	92	38.1	1	3	315	0.00	29.502 
03:00	40.2	40.2	40.2	92	38.1	2	5	315	0.00	29.504 
03:05	40.2	40.2	40.2	91	37.8	2	5	315	0.00	29.504 
03:10	40.2	40.2	40.2	91	37.8	2	5	315	0.00	29.504 
03:15	40.2	40.2	40.2	91	37.8	2	4	315	0.00	29.508 
03:20	40.2	40.2	40.2	90	37.5	2	7	292	0.00	29.508 
03:25	40.2	40.2	40.2	90	37.5	2	4	315	0.00	29.508 
03:30	40.2	40.2	40.2	89	37.2	2	4	315	0.00	29.507 
03:35	40.1	40.1	40.1	88	36.8	3	7	292	0.00	29.507 
03:40	40.1	40.1	40.1	88	36.8	2	5	315	0.00	29.507 
03:45	39.9	39.9	39.9	88	36.6	1	3	292	0.00	29.500 
03:50	39.9	39.9	39.9	88	36.6	1	4	315	0.00	29.500 
03:55	39.8	39.8	39.8	88	36.5	1	3	315	0.00	29.500 
04:00	39.6	39.6	39.6	87	36.1	1	3	315	0.00	29.491 
04:05	39.5	39.5	39.5	87	36.0	1	2	315	0.00	29.491 
04:10	39.3	39.3	39.3	87	35.8	1	3	292	0.00	29.491 
04:15	39.1	39.1	39.1	87	35.6	0	3	338	0.00	29.492 
04:20	38.9	38.9	38.9	88	35.7	1	3	315	0.00	29.492 
04:25	38.8	38.8	38.8	88	35.6	1	3	315	0.00	29.492 
04:30	38.5	38.5	38.5	89	35.5	1	3	248	0.00	29.497 
04:35	38.3	38.3	38.3	89	35.3	0	3	315	0.00	29.497 
04:40	38.2	38.2	38.2	89	35.2	0	2	315	0.00	29.497 
04:45	38.0	38.0	38.0	89	35.1	0	2	315	0.00	29.496 
04:50	37.9	37.9	37.9	90	35.2	1	3	315	0.00	29.496 
04:55	37.8	37.8	37.8	90	35.1	0	4	270	0.00	29.496 
05:00	37.6	37.6	37.6	90	34.9	0	2	248	0.00	29.494 
05:05	37.3	37.3	37.3	90	34.6	0	1	248	0.00	29.494 
05:10	37.2	37.2	37.2	90	34.5	0	2	248	0.00	29.494 
05:15	36.9	36.9	36.9	90	34.2	0	1	248	0.00	29.500 
05:20	36.9	36.9	36.9	91	34.5	0	1	248	0.00	29.500 
05:25	36.8	36.8	36.8	91	34.4	0	3	248	0.00	29.500 
05:30	36.6	36.6	36.6	91	34.2	0	1	248	0.00	29.500 
05:35	36.5	36.5	36.5	91	34.1	1	2	270	0.00	29.500 
05:40	36.5	36.5	36.5	91	34.1	0	2	270	0.00	29.500 
05:45	36.3	36.3	36.3	92	34.2	1	2	270	0.00	29.501 
05:50	36.3	36.3	36.3	92	34.2	0	2	270	0.00	29.501 
05:55	36.2	36.2	36.2	92	34.1	1	3	248	0.00	29.501 
06:00	36.2	36.2	36.2	92	34.1	1	3	248	0.00	29.500 
06:05	36.2	36.2	36.2	92	34.1	1	3	248	0.00	29.500 
06:10	36.3	36.3	36.3	92	34.2	1	3	248	0.01	29.500 
06:15	36.6	36.6	36.6	92	34.5	1	3	248	0.00	29.505 
06:20	36.8	36.8	36.8	92	34.7	1	3	248	0.00	29.505 
06:25	37.0	37.0	37.0	92	34.9	2	6	248	0.00	29.505 
06:30	37.2	37.2	37.2	91	34.8	3	7	248	0.00	29.494 
06:35	37.3	37.3	37.3	91	34.9	2	6	248	0.00	29.494 
06:40	37.6	37.6	37.6	91	35.2	2	6	248	0.00	29.494 
06:45	37.6	37.6	37.6	90	34.9	1	2	248	0.00	29.493 
06:50	37.6	37.6	37.6	91	35.2	2	5	248	0.00	29.493 
06:55	37.9	37.9	37.9	92	35.8	2	5	248	0.00	29.493 
07:00	38.2	38.2	38.2	92	36.1	3	5	248	0.00	29.494 
07:05	38.5	38.5	38.5	92	36.4	2	7	270	0.00	29.494 
07:10	38.8	38.8	38.8	92	36.7	2	4	270	0.00	29.494 
07:15	38.9	38.9	38.9	93	37.1	2	4	248	0.01	29.492 
07:20	39.2	39.2	39.2	93	37.3	3	6	248	0.01	29.492 
07:25	39.3	39.3	39.3	93	37.4	2	6	270	0.00	29.492 
07:30	39.3	39.3	39.3	94	37.7	2	4	270	0.00	29.491 
07:35	39.5	39.5	39.5	94	37.9	2	4	248	0.00	29.491 
07:40	39.5	39.5	39.5	94	37.9	2	6	248	0.00	29.491 
07:45	39.6	39.6	39.6	94	38.0	1	5	248	0.00	29.489 
07:50	39.6	39.6	39.6	94	38.0	2	6	248	0.00	29.489 
07:55	39.8	39.8	39.8	94	38.2	2	5	248	0.00	29.489 
08:00	39.9	39.9	39.9	93	38.0	3	7	270	0.00	29.484 
08:05	39.9	39.9	39.9	93	38.0	2	7	248	0.00	29.484 
08:10	39.9	39.9	39.9	93	38.0	2	5	248	0.00	29.484 
08:15	40.1	40.1	40.1	92	38.0	2	5	270	0.00	29.489 
08:20	40.2	40.2	40.2	91	37.8	2	11	270	0.00	29.489 
08:25	40.2	40.2	40.2	91	37.8	2	5	270	0.00	29.489 
08:30	40.3	40.3	40.3	91	37.9	2	4	248	0.00	29.490 
08:35	40.3	40.3	40.3	91	37.9	2	6	248	0.00	29.490 
08:40	40.5	40.5	40.5	90	37.8	3	9	248	0.00	29.490 
08:45	40.5	40.5	40.5	89	37.5	3	7	270	0.00	29.492 
08:50	40.5	40.5	40.5	89	37.5	3	7	270	0.00	29.492 
08:55	40.6	40.6	40.6	89	37.6	2	4	270	0.00	29.492 
09:00	40.8	40.8	40.8	89	37.8	3	6	270	0.00	29.493 
09:05	40.9	40.9	40.9	88	37.6	3	5	270	0.00	29.493 
09:10	41.1	41.1	41.1	88	37.8	3	9	270	0.00	29.493 
09:15	41.2	41.2	41.2	88	37.9	3	6	270	0.00	29.504 
09:20	41.6	41.6	41.6	88	38.3	2	5	270	0.00	29.504 
09:25	41.6	41.6	41.6	88	38.3	3	7	270	0.00	29.504 
09:30	41.5	41.5	41.5	87	37.9	3	9	270	0.00	29.509 
09:35	41.5	41.5	41.5	87	37.9	3	8	270	0.00	29.509 
09:40	41.6	41.6	41.6	87	38.0	3	7	248	0.00	29.509 
09:45	41.8	41.8	41.8	86	37.9	3	6	270	0.00	29.510 
09:50	42.1	42.1	42.1	86	38.2	2	4	270	0.00	29.510 
09:55	42.3	40.0	42.3	84	37.8	4	6	270	0.00	29.510 
10:00	42.5	40.2	42.5	83	37.7	4	7	270	0.00	29.510 
10:05	42.8	42.8	42.8	82	37.7	3	7	270	0.00	29.510 
10:10	43.2	43.2	43.2	80	37.5	3	7	270	0.00	29.510 
10:15	43.5	41.4	43.5	79	37.4	4	14	270	0.00	29.507 
10:20	43.6	40.7	43.6	77	36.9	5	11	270	0.00	29.507 
10:25	43.9	43.9	43.9	77	37.2	3	7	270	0.00	29.507 
10:30	44.2	44.2	44.2	76	37.1	3	13	315	0.00	29.505 
10:35	44.2	42.2	44.2	74	36.4	4	10	270	0.00	29.505 
10:40	44.1	42.1	44.1	73	36.0	4	7	270	0.00	29.505 
10:45	43.9	43.9	43.9	72	35.5	3	10	338	0.00	29.512 
10:50	44.2	42.2	44.2	71	35.4	4	9	270	0.00	29.512 
10:55	44.3	44.3	44.3	70	35.1	3	7	270	0.00	29.512 
11:00	44.3	42.3	44.3	68	34.4	4	10	270	0.00	29.510 
11:05	44.5	44.5	44.5	71	35.7	3	7	270	0.00	29.510 
11:10	44.6	44.6	44.6	69	35.1	3	7	270	0.00	29.510 
11:15	44.9	42.2	44.9	64	33.5	5	15	270	0.00	29.513 
11:20	45.4	43.6	45.4	65	34.3	4	11	270	0.00	29.513 
11:25	45.5	42.9	45.5	63	33.6	5	10	270	0.00	29.513 
11:30	46.0	44.2	46.0	65	34.9	4	11	270	0.00	29.518 
11:35	46.0	43.5	46.0	63	34.1	5	13	292	0.00	29.518 
11:40	46.0	42.9	46.0	62	33.7	6	13	270	0.00	29.518 
11:45	46.5	44.8	46.5	62	34.2	4	7	292	0.00	29.519 
11:50	46.8	43.9	46.8	60	33.7	6	15	292	0.00	29.519 
11:55	46.8	43.9	46.8	57	32.4	6	15	315	0.00	29.519 
12:00	46.5	43.5	46.5	60	33.4	6	15	270	0.00	29.519 
12:05	46.8	44.5	46.8	58	32.8	5	11	292	0.00	29.519 
12:10	47.1	45.5	47.1	57	32.7	4	9	270	0.00	29.519 
12:15	47.0	44.1	47.0	57	32.6	6	13	270	0.00	29.519 
12:20	46.7	45.1	46.7	58	32.7	4	10	270	0.00	29.519 
12:25	47.1	44.8	47.1	55	31.8	5	18	270	0.00	29.519 
12:30	47.4	44.6	47.4	54	31.6	6	18	270	0.00	29.524 
12:35	46.8	43.3	46.8	54	31.0	7	13	270	0.00	29.524 
12:40	47.1	44.2	47.1	52	30.4	6	12	270	0.00	29.524 
12:45	47.0	44.1	47.0	51	29.8	6	15	315	0.00	29.524 
12:50	46.8	43.9	46.8	52	30.1	6	11	315	0.00	29.524 
12:55	47.1	44.8	47.1	50	29.4	5	12	315	0.00	29.524 
13:00	46.8	43.9	46.8	51	29.6	6	12	315	0.00	29.524 
13:05	46.5	43.5	46.5	52	29.8	6	13	292	0.00	29.524 
13:10	46.8	43.9	46.8	49	28.7	6	16	315	0.00	29.524 
13:15	47.1	44.2	47.1	50	29.4	6	15	315	0.00	29.533 
13:20	47.1	44.2	47.1	49	28.9	6	17	292	0.00	29.533 
13:25	46.8	44.5	46.8	51	29.6	5	11	315	0.00	29.533 
13:30	46.4	44.0	46.4	53	30.2	5	11	315	0.00	29.534 
13:35	46.5	44.1	46.5	52	29.8	5	14	315	0.00	29.534 
13:40	46.2	43.1	46.2	52	29.6	6	12	315	0.00	29.534 
13:45	46.8	45.2	46.8	53	30.6	4	11	315	0.00	29.532 
13:50	46.8	43.9	46.8	51	29.6	6	12	292	0.00	29.532 
13:55	46.8	43.9	46.8	52	30.1	6	13	270	0.00	29.532 
14:00	46.1	43.6	46.1	54	30.4	5	10	292	0.00	29.530 
14:05	46.1	43.0	46.1	54	30.4	6	11	270	0.00	29.530 
14:10	47.1	44.8	47.1	52	30.4	5	11	270	0.00	29.530 
14:15	47.7	44.9	47.7	50	30.0	6	12	270	0.00	29.527 
14:20	47.4	45.2	47.4	51	30.2	5	11	270	0.00	29.527 
14:25	47.6	45.4	47.6	55	32.2	5	11	270	0.00	29.527 
14:30	47.9	46.4	47.9	53	31.6	4	10	270	0.00	29.534 
14:35	47.1	44.2	47.1	49	28.9	6	11	315	0.00	29.534 
14:40	46.5	43.5	46.5	50	28.9	6	12	270	0.00	29.534 
14:45	46.2	43.1	46.2	50	28.6	6	14	270	0.00	29.537 
14:50	46.4	44.0	46.4	51	29.3	5	16	292	0.00	29.537 
14:55	46.2	43.8	46.2	50	28.6	5	12	270	0.00	29.537 
15:00	46.8	43.9	46.8	48	28.2	6	16	270	0.00	29.539 
15:05	47.1	44.2	47.1	51	29.9	6	15	270	0.00	29.539 
15:10	47.3	43.9	47.3	44	26.5	7	16	270	0.00	29.539 
15:15	47.6	44.3	47.6	42	25.7	7	16	270	0.00	29.540 
15:20	47.0	43.6	47.0	42	25.1	7	15	270	0.00	29.540 
15:25	47.7	44.9	47.7	40	24.6	6	14	270	0.00	29.540 
15:30	48.3	45.6	48.3	43	26.9	6	13	270	0.00	29.538 
15:35	48.5	46.5	48.5	41	25.9	5	13	270	0.00	29.538 
15:40	48.5	47.1	48.5	40	25.3	4	12	315	0.00	29.538 
15:45	48.3	45.1	48.3	38	23.9	7	16	270	0.00	29.544 
15:50	48.0	45.3	48.0	38	23.6	6	18	270	0.00	29.544 
15:55	48.2	46.8	48.2	39	24.4	4	12	315	0.00	29.544 
16:00	48.8	47.5	48.8	39	25.0	4	11	292	0.00	29.550 
16:05	48.3	45.6	48.3	37	23.3	6	13	315	0.00	29.550 
16:10	47.7	45.5	47.7	38	23.4	5	16	315	0.00	29.550 
16:15	47.7	45.5	47.7	39	24.0	5	11	292	0.00	29.563 
16:20	48.2	46.8	48.2	37	23.2	4	9	292	0.00	29.563 
16:25	48.5	46.5	48.5	37	23.4	5	13	315	0.00	29.563 
16:30	48.6	46.6	48.6	35	22.2	5	11	315	0.00	29.570 
16:35	48.6	47.3	48.6	36	22.9	4	10	315	0.00	29.570 
16:40	48.5	45.9	48.5	36	22.8	6	17	315	0.00	29.570 
16:45	47.7	44.9	47.7	37	22.7	6	13	270	0.00	29.581 
16:50	47.1	44.8	47.1	38	22.8	5	12	270	0.00	29.581 
16:55	46.7	44.3	46.7	38	22.5	5	11	315	0.00	29.581 
17:00	46.5	44.1	46.5	39	22.9	5	10	315	0.00	29.590 
17:05	46.5	44.8	46.5	39	22.9	4	11	338	0.00	29.590 
17:10	46.7	45.1	46.7	40	23.7	4	11	270	0.00	29.590 
17:15	46.5	46.5	46.5	41	24.1	3	5	315	0.00	29.603 
17:20	46.7	45.1	46.7	42	24.8	4	11	292	0.00	29.603 
17:25	46.8	44.5	46.8	41	24.4	5	14	292	0.00	29.603 
17:30	47.0	45.4	47.0	40	23.9	4	10	315	0.00	29.603 
17:35	46.8	46.8	46.8	41	24.4	3	5	270	0.00	29.603 
17:40	46.8	46.8	46.8	40	23.8	3	6	270	0.00	29.603 
17:45	46.7	45.1	46.7	40	23.7	4	9	270	0.00	29.604 
17:50	46.8	46.8	46.8	41	24.4	2	6	315	0.00	29.604 
17:55	46.8	46.8	46.8	42	24.9	2	7	292	0.00	29.604 
18:00	46.8	46.8	46.8	43	25.5	2	4	292	0.00	29.606 
18:05	46.7	46.7	46.7	41	24.3	2	7	270	0.00	29.606 
18:10	46.7	46.7	46.7	40	23.7	2	6	315	0.00	29.606 
18:15	46.7	46.7	46.7	42	24.8	3	8	270	0.00	29.607 
18:20	46.5	46.5	46.5	41	24.1	2	5	270	0.00	29.607 
18:25	46.5	46.5	46.5	41	24.1	3	5	270	0.00	29.607 
18:30	46.4	46.4	46.4	41	24.0	2	5	270	0.00	29.613 
18:35	46.4	46.4	46.4	42	24.6	2	7	292	0.00	29.613 
18:40	46.4	46.4	46.4	42	24.6	2	5	270	0.00	29.613 
18:45	46.1	46.1	46.1	43	24.9	2	4	270	0.00	29.616 
18:50	46.0	46.0	46.0	43	24.8	2	6	270	0.00	29.616 
18:55	45.8	45.8	45.8	43	24.6	2	7	248	0.00	29.616 
19:00	45.5	45.5	45.5	44	24.9	1	2	270	0.00	29.618 
19:05	45.4	45.4	45.4	44	24.8	1	3	270	0.00	29.618 
19:10	45.2	45.2	45.2	44	24.6	1	4	248	0.00	29.618 
19:15	45.1	45.1	45.1	45	25.0	1	3	248	0.00	29.620 
19:20	44.8	44.8	44.8	46	25.3	1	4	248	0.00	29.620 
19:25	44.6	44.6	44.6	43	23.5	1	4	248	0.00	29.620 
19:30	44.5	44.5	44.5	46	25.0	1	3	248	0.00	29.620 
19:35	44.3	44.3	44.3	46	24.8	1	2	248	0.00	29.620 
19:40	44.2	44.2	44.2	47	25.3	1	4	248	0.00	29.620 
19:45	44.5	44.5	44.5	46	25.0	2	6	270	0.00	29.639 
19:50	44.8	44.8	44.8	47	25.8	3	5	270	0.00	29.639 
19:55	44.6	44.6	44.6	48	26.1	1	3	270	0.00	29.639 
20:00	44.6	44.6	44.6	47	25.6	2	3	315	0.00	29.632 
20:05	44.8	44.8	44.8	47	25.8	1	4	270	0.00	29.632 
20:10	44.9	44.9	44.9	46	25.4	1	6	292	0.00	29.632 
20:15	44.9	44.9	44.9	47	25.9	1	3	292	0.00	29.629 
20:20	45.2	45.2	45.2	45	25.1	2	6	270	0.00	29.629 
20:25	45.7	45.7	45.7	45	25.6	2	5	270	0.00	29.629 
20:30	45.7	45.7	45.7	46	26.1	1	4	270	0.00	29.635 
20:35	45.5	45.5	45.5	46	25.9	2	15	270	0.00	29.635 
20:40	46.0	43.5	46.0	45	25.9	5	14	270	0.00	29.635 
20:45	45.8	44.0	45.8	46	26.2	4	12	270	0.00	29.631 
20:50	45.7	45.7	45.7	46	26.1	2	11	270	0.00	29.631 
20:55	45.5	45.5	45.5	44	24.9	2	4	292	0.00	29.631 
21:00	45.7	45.7	45.7	45	25.6	2	5	270	0.00	29.632 
21:05	45.7	43.9	45.7	45	25.6	4	12	248	0.00	29.632 
21:10	45.5	45.5	45.5	47	26.5	3	10	270	0.00	29.632 
21:15	45.2	45.2	45.2	48	26.7	2	6	270	0.00	29.629 
21:20	45.1	45.1	45.1	47	26.1	2	5	270	0.00	29.629 
21:25	45.1	45.1	45.1	48	26.6	2	5	248	0.00	29.629 
21:30	45.1	43.2	45.1	51	28.1	4	19	270	0.00	29.631 
21:35	45.2	43.3	45.2	46	25.7	4	9	270	0.00	29.631 
21:40	45.5	45.5	45.5	46	25.9	3	6	270	0.00	29.631 
21:45	45.4	45.4	45.4	46	25.8	2	5	270	0.00	29.636 
21:50	45.1	45.1	45.1	47	26.1	3	7	248	0.00	29.636 
21:55	44.9	44.9	44.9	48	26.4	2	5	248	0.00	29.636 
22:00	44.8	44.8	44.8	47	25.8	2	5	270	0.00	29.642 
22:05	44.8	44.8	44.8	48	26.3	2	7	270	0.00	29.642 
22:10	44.6	44.6	44.6	48	26.1	1	3	248	0.00	29.642 
22:15	44.6	44.6	44.6	48	26.1	1	2	270	0.00	29.645 
22:20	44.3	44.3	44.3	49	26.4	1	4	270	0.00	29.645 
22:25	44.2	44.2	44.2	50	26.8	2	6	248	0.00	29.645 
22:30	44.2	44.2	44.2	49	26.3	2	6	270	0.00	29.645 
22:35	44.1	44.1	44.1	50	26.7	2	3	248	0.00	29.645 
22:40	44.1	44.1	44.1	50	26.7	3	7	248	0.00	29.645 
22:45	44.1	44.1	44.1	50	26.7	3	8	270	0.00	29.647 
22:50	43.9	43.9	43.9	51	27.0	3	5	248	0.00	29.647 
22:55	43.8	43.8	43.8	52	27.3	2	4	248	0.00	29.647 
23:00	43.8	43.8	43.8	51	26.9	3	11	248	0.00	29.647 
23:05	43.9	43.9	43.9	52	27.4	3	7	270	0.00	29.647 
23:10	44.1	44.1	44.1	51	27.1	3	8	248	0.00	29.647 
23:15	44.2	44.2	44.2	51	27.2	3	7	270	0.00	29.644 
23:20	44.3	42.3	44.3	51	27.3	4	10	270	0.00	29.644 
23:25	44.2	42.2	44.2	53	28.2	4	13	270	0.00	29.644 
23:30	44.1	44.1	44.1	53	28.1	3	9	270	0.00	29.645 
23:35	44.1	44.1	44.1	52	27.6	3	7	270	0.00	29.645 
23:40	44.3	42.3	44.3	51	27.3	4	7	270	0.00	29.645 
23:45	44.3	44.3	44.3	50	26.8	3	9	270	0.00	29.645 
23:50	44.3	44.3	44.3	49	26.4	3	6	270	0.00	29.645 
23:55	44.3	44.3	44.3	50	26.8	3	7	270	0.00	29.645 

CoCoRaHS
IN-AL-39
A2 Web Hosting
Creative Commons License
GoDaddy
Look for:

loaded 2017-10-17 00:37:16 • last modified 2010-11-18 10:43:29
Privacy PolicyDisclaimer
• wx.awcolley.com is powered by PmWiki v.2002016 •
• all content (unless otherwise noted) © 2017 A W Colley